Bowling Green, Kentucky
Current Conditions -  °F | °C
As of 9:05 AM on Monday 22 Dec 2014 (Local Time) from KBWG Reporting Station
Broken Clouds Broken Clouds  
Wind Chill: 10°   Ceiling: 2400
Heat Index: 10°   Visibility: 10mi
Dew Point:   Wind: 8mph
Humidity: 74%   Direction: 150°SSE
Pressure: 29.93"   Gusts: NA
Location:  36.99°N, 86.44°W
Report Text: KBWG 221505Z AUTO 15007KT 10SM BKN024 10/06 A2993 RMK AO2 T01000056 $
Loading
Personal Weather Stations






























Interactive Weather Map New forecast layout! Learn more

10-Day Weather Forecast

Advertisements
Track Severe Weather on mobile